createdAt,value
2018-01-22T00:00:13.212Z,0.00
2018-01-22T00:01:13.162Z,0.00
2018-01-22T00:02:13.304Z,0.00
2018-01-22T00:03:13.108Z,0.00
2018-01-22T00:04:13.071Z,0.00
2018-01-22T00:05:13.038Z,0.00
2018-01-22T00:06:13.003Z,0.00
2018-01-22T00:07:12.994Z,0.00
2018-01-22T00:08:12.934Z,0.00
2018-01-22T00:09:12.908Z,0.00
2018-01-22T00:10:12.877Z,0.00
2018-01-22T00:11:12.838Z,0.00
2018-01-22T00:12:12.890Z,0.00
2018-01-22T00:13:12.780Z,0.00
2018-01-22T00:14:12.746Z,0.00
2018-01-22T00:15:12.719Z,0.00
2018-01-22T00:16:12.762Z,0.00
2018-01-22T00:17:12.753Z,0.00
2018-01-22T00:18:14.493Z,0.00
2018-01-22T00:19:12.724Z,0.00
2018-01-22T00:20:12.551Z,0.00
2018-01-22T00:21:12.552Z,0.00
2018-01-22T00:22:12.489Z,0.00
2018-01-22T00:23:12.459Z,0.00
2018-01-22T00:24:12.424Z,0.00
2018-01-22T00:25:12.447Z,0.00
2018-01-22T00:26:12.362Z,0.00
2018-01-22T00:27:12.341Z,0.00
2018-01-22T00:28:12.305Z,0.00
2018-01-22T00:29:12.285Z,0.00
2018-01-22T00:30:12.356Z,0.00
2018-01-22T00:31:12.216Z,0.00
2018-01-22T00:32:12.177Z,0.00
2018-01-22T00:33:12.308Z,0.00
2018-01-22T00:34:12.119Z,0.00
2018-01-22T00:35:12.095Z,0.00
2018-01-22T00:36:12.047Z,0.00
2018-01-22T00:37:12.020Z,0.00
2018-01-22T00:38:11.984Z,0.00
2018-01-22T00:39:11.954Z,0.00
2018-01-22T00:40:11.916Z,0.00
2018-01-22T00:41:11.888Z,0.00
2018-01-22T00:42:11.858Z,0.00
2018-01-22T00:43:11.834Z,0.00
2018-01-22T00:44:11.800Z,0.00
2018-01-22T00:45:11.763Z,0.00
2018-01-22T00:46:11.734Z,0.00
2018-01-22T00:47:11.704Z,0.00
2018-01-22T00:48:11.663Z,0.00
2018-01-22T00:49:11.631Z,0.00
2018-01-22T00:50:11.606Z,0.00
2018-01-22T00:51:11.572Z,0.00
2018-01-22T00:52:11.551Z,0.00
2018-01-22T00:53:11.509Z,0.00
2018-01-22T00:54:11.478Z,0.00
2018-01-22T00:55:11.444Z,0.00
2018-01-22T00:56:11.415Z,0.00
2018-01-22T00:57:11.382Z,0.00
2018-01-22T00:58:11.351Z,0.00
2018-01-22T00:59:11.321Z,0.00
2018-01-22T01:00:11.283Z,0.00
2018-01-22T01:01:11.252Z,0.00
2018-01-22T01:02:11.221Z,0.00
2018-01-22T01:03:11.208Z,0.00
2018-01-22T01:04:11.158Z,0.00
2018-01-22T01:05:11.139Z,0.00
2018-01-22T01:06:11.136Z,0.00
2018-01-22T01:07:11.063Z,0.00
2018-01-22T01:08:11.040Z,0.00
2018-01-22T01:09:10.999Z,0.00
2018-01-22T01:10:10.970Z,0.00
2018-01-22T01:11:10.937Z,0.00
2018-01-22T01:12:10.907Z,0.00
2018-01-22T01:13:10.875Z,0.00
2018-01-22T01:14:10.847Z,0.00
2018-01-22T01:15:10.809Z,0.00
2018-01-22T01:16:10.813Z,0.00
2018-01-22T01:17:10.744Z,0.00
2018-01-22T01:18:10.715Z,0.00
2018-01-22T01:19:10.732Z,0.00
2018-01-22T01:20:10.660Z,0.00
2018-01-22T01:21:10.620Z,0.00
2018-01-22T01:22:10.615Z,0.00
2018-01-22T01:23:10.556Z,0.00
2018-01-22T01:24:10.532Z,0.00
2018-01-22T01:25:10.494Z,0.00
2018-01-22T01:26:10.460Z,0.00
2018-01-22T01:27:10.433Z,0.00
2018-01-22T01:28:10.398Z,0.00
2018-01-22T01:29:10.371Z,0.00
2018-01-22T01:30:10.333Z,0.00
2018-01-22T01:31:10.304Z,0.00
2018-01-22T01:32:10.267Z,0.00
2018-01-22T01:33:10.237Z,0.00
2018-01-22T01:34:10.237Z,0.00
2018-01-22T01:35:10.175Z,0.00
2018-01-22T01:36:10.140Z,0.00
2018-01-22T01:37:10.112Z,0.00
2018-01-22T01:38:10.087Z,0.00
2018-01-22T01:39:10.047Z,0.00
2018-01-22T01:40:10.018Z,0.00
2018-01-22T01:41:09.984Z,0.00
2018-01-22T01:42:09.957Z,0.00
2018-01-22T01:43:09.921Z,0.00
2018-01-22T01:44:09.890Z,0.00
2018-01-22T01:45:09.857Z,0.00
2018-01-22T01:46:09.827Z,0.00
2018-01-22T01:47:09.793Z,0.00
2018-01-22T01:48:09.761Z,0.00
2018-01-22T01:49:09.725Z,0.00
2018-01-22T01:50:09.698Z,0.00
2018-01-22T01:51:09.666Z,0.00
2018-01-22T01:52:09.638Z,0.00
2018-01-22T01:53:09.607Z,0.00
2018-01-22T01:54:09.575Z,0.00
2018-01-22T01:55:09.542Z,0.00
2018-01-22T01:56:09.504Z,0.00
2018-01-22T01:57:09.496Z,0.00
2018-01-22T01:58:09.443Z,0.00
2018-01-22T01:59:09.407Z,0.00
2018-01-22T02:00:09.388Z,0.00
2018-01-22T02:01:09.348Z,0.00
2018-01-22T02:02:09.374Z,0.00
2018-01-22T02:03:09.282Z,0.00
2018-01-22T02:04:09.260Z,0.00
2018-01-22T02:05:09.226Z,0.00
2018-01-22T02:06:09.268Z,0.00
2018-01-22T02:07:09.160Z,0.00
2018-01-22T02:08:09.132Z,0.00
2018-01-22T02:09:09.095Z,0.00
2018-01-22T02:10:09.066Z,0.00
2018-01-22T02:11:09.035Z,0.00
2018-01-22T02:12:09.032Z,0.00
2018-01-22T02:13:08.991Z,0.00
2018-01-22T02:14:08.941Z,0.00
2018-01-22T02:15:08.900Z,0.00
2018-01-22T02:16:08.876Z,0.00
2018-01-22T02:17:08.868Z,0.00
2018-01-22T02:18:08.811Z,0.00
2018-01-22T02:19:08.776Z,0.00
2018-01-22T02:20:08.748Z,0.00
2018-01-22T02:21:08.713Z,0.00
2018-01-22T02:22:08.680Z,0.00
2018-01-22T02:23:08.650Z,0.00
2018-01-22T02:24:08.619Z,0.00
2018-01-22T02:25:08.590Z,0.00
2018-01-22T02:26:08.559Z,0.00
2018-01-22T02:27:08.586Z,0.00
2018-01-22T02:28:08.492Z,0.00
2018-01-22T02:29:08.455Z,0.00
2018-01-22T02:30:08.437Z,0.00
2018-01-22T02:31:08.392Z,0.00
2018-01-22T02:32:08.365Z,0.00
2018-01-22T02:33:08.338Z,0.00
2018-01-22T02:34:08.297Z,0.00
2018-01-22T02:35:08.270Z,0.00
2018-01-22T02:36:08.237Z,0.00
2018-01-22T02:37:08.207Z,0.00
2018-01-22T02:38:08.171Z,0.00
2018-01-22T02:39:08.164Z,0.00
2018-01-22T02:40:08.141Z,0.00
2018-01-22T02:41:08.083Z,0.00
2018-01-22T02:42:08.048Z,0.00
2018-01-22T02:43:08.020Z,0.00
2018-01-22T02:44:07.978Z,0.00
2018-01-22T02:45:07.949Z,0.00
2018-01-22T02:46:07.918Z,0.00
2018-01-22T02:47:07.884Z,0.00
2018-01-22T02:48:07.853Z,0.00
2018-01-22T02:49:07.819Z,0.00
2018-01-22T02:50:07.788Z,0.00
2018-01-22T02:51:07.765Z,0.00
2018-01-22T02:52:09.507Z,0.00
2018-01-22T02:53:07.701Z,0.00
2018-01-22T02:54:07.670Z,0.00
2018-01-22T02:55:07.641Z,0.00
2018-01-22T02:56:07.608Z,0.00
2018-01-22T02:57:07.575Z,0.00
2018-01-22T02:58:07.544Z,0.00
2018-01-22T02:59:07.529Z,0.00
2018-01-22T03:00:07.470Z,0.00
2018-01-22T03:01:07.436Z,0.00
2018-01-22T03:02:07.406Z,0.00
2018-01-22T03:03:07.372Z,0.00
2018-01-22T03:04:07.342Z,0.00
2018-01-22T03:05:07.315Z,0.00
2018-01-22T03:06:07.288Z,0.00
2018-01-22T03:07:07.248Z,0.00
2018-01-22T03:08:07.219Z,0.00
2018-01-22T03:09:07.187Z,0.00
2018-01-22T03:10:07.155Z,0.00
2018-01-22T03:11:07.126Z,0.00
2018-01-22T03:12:07.094Z,0.00
2018-01-22T03:13:07.061Z,0.00
2018-01-22T03:14:07.048Z,0.00
2018-01-22T03:15:06.997Z,0.00
2018-01-22T03:16:06.964Z,0.00
2018-01-22T03:17:06.929Z,0.00
2018-01-22T03:18:06.899Z,0.00
2018-01-22T03:19:06.874Z,0.00
2018-01-22T03:20:06.835Z,0.00
2018-01-22T03:21:06.802Z,0.00
2018-01-22T03:22:06.775Z,0.00
2018-01-22T03:23:06.740Z,0.00
2018-01-22T03:24:06.712Z,0.00
2018-01-22T03:25:06.678Z,0.00
2018-01-22T03:26:06.654Z,0.00
2018-01-22T03:27:06.617Z,0.00
2018-01-22T03:28:06.588Z,0.00
2018-01-22T03:29:06.551Z,0.00
2018-01-22T03:30:06.529Z,0.00
2018-01-22T03:31:06.488Z,0.00
2018-01-22T03:32:06.453Z,0.00
2018-01-22T03:33:06.419Z,0.00
2018-01-22T03:34:06.393Z,0.00
2018-01-22T03:35:06.354Z,0.00
2018-01-22T03:36:06.327Z,0.00
2018-01-22T03:37:06.297Z,0.00
2018-01-22T03:38:06.264Z,0.00
2018-01-22T03:39:06.229Z,0.00
2018-01-22T03:40:06.205Z,0.00
2018-01-22T03:41:06.185Z,0.00
2018-01-22T03:42:06.193Z,0.00
2018-01-22T03:43:06.110Z,0.00
2018-01-22T03:44:06.076Z,0.00
2018-01-22T03:45:06.043Z,0.00
2018-01-22T03:46:06.014Z,0.00
2018-01-22T03:47:05.979Z,0.00
2018-01-22T03:48:05.940Z,0.00
2018-01-22T03:49:05.914Z,0.00
2018-01-22T03:50:05.880Z,0.00
2018-01-22T03:51:05.855Z,0.00
2018-01-22T03:52:05.816Z,0.00
2018-01-22T03:53:05.784Z,0.00
2018-01-22T03:54:05.749Z,0.00
2018-01-22T03:55:05.718Z,0.00
2018-01-22T03:56:05.687Z,0.00
2018-01-22T03:57:05.654Z,0.00
2018-01-22T03:58:05.629Z,0.00
2018-01-22T03:59:05.591Z,0.00
2018-01-22T04:00:05.557Z,0.00
2018-01-22T04:01:05.524Z,0.00
2018-01-22T04:02:05.497Z,0.00
2018-01-22T04:03:05.464Z,0.00
2018-01-22T04:04:05.433Z,0.00
2018-01-22T04:05:05.401Z,0.00
2018-01-22T04:06:05.368Z,0.00
2018-01-22T04:07:05.337Z,0.00
2018-01-22T04:08:05.312Z,0.00
2018-01-22T04:09:05.275Z,0.00
2018-01-22T04:10:05.260Z,0.00
2018-01-22T04:11:05.211Z,0.00
2018-01-22T04:12:05.175Z,0.00
2018-01-22T04:13:05.140Z,0.00
2018-01-22T04:14:05.113Z,0.00
2018-01-22T04:15:05.077Z,0.00
2018-01-22T04:16:05.074Z,0.00
2018-01-22T04:17:05.029Z,0.00
2018-01-22T04:18:04.982Z,0.00
2018-01-22T04:19:04.950Z,0.00
2018-01-22T04:20:04.929Z,0.00
2018-01-22T04:21:04.906Z,0.00
2018-01-22T04:22:04.885Z,0.00
2018-01-22T04:23:04.827Z,0.00
2018-01-22T04:24:04.794Z,0.00
2018-01-22T04:25:04.761Z,0.00
2018-01-22T04:26:04.733Z,0.00
2018-01-22T04:27:04.695Z,0.00
2018-01-22T04:28:04.663Z,0.00
2018-01-22T04:29:04.629Z,0.00
2018-01-22T04:30:04.602Z,0.00
2018-01-22T04:31:04.570Z,0.00
2018-01-22T04:32:04.545Z,0.00
2018-01-22T04:33:04.509Z,0.00
2018-01-22T04:34:04.474Z,0.00
2018-01-22T04:35:04.438Z,0.00
2018-01-22T04:36:04.410Z,0.00
2018-01-22T04:37:04.381Z,0.00
2018-01-22T04:38:04.361Z,0.00
2018-01-22T04:39:04.318Z,0.00
2018-01-22T04:40:04.283Z,0.00
2018-01-22T04:41:04.250Z,0.00
2018-01-22T04:42:04.221Z,0.00
2018-01-22T04:43:04.189Z,0.00
2018-01-22T04:44:04.191Z,0.00
2018-01-22T04:45:04.124Z,0.00
2018-01-22T04:46:04.086Z,0.00
2018-01-22T04:47:04.056Z,0.00
2018-01-22T04:48:04.024Z,0.00
2018-01-22T04:49:03.995Z,0.00
2018-01-22T04:50:03.962Z,0.00
2018-01-22T04:51:03.933Z,0.00
2018-01-22T04:52:03.902Z,0.00
2018-01-22T04:53:03.869Z,0.00
2018-01-22T04:54:03.838Z,0.00
2018-01-22T04:55:03.808Z,0.00
2018-01-22T04:56:03.776Z,0.00
2018-01-22T04:57:03.747Z,0.00
2018-01-22T04:58:03.709Z,0.00
2018-01-22T04:59:03.680Z,0.00
2018-01-22T05:00:03.641Z,0.00
2018-01-22T05:01:03.614Z,0.00
2018-01-22T05:02:03.578Z,0.00
2018-01-22T05:03:03.548Z,0.00
2018-01-22T05:04:03.519Z,0.00
2018-01-22T05:05:03.492Z,0.00
2018-01-22T05:06:03.457Z,0.00
2018-01-22T05:07:03.433Z,0.00
2018-01-22T05:08:03.390Z,0.00
2018-01-22T05:09:03.357Z,0.00
2018-01-22T05:10:03.328Z,0.00
2018-01-22T05:11:03.294Z,0.00
2018-01-22T05:12:03.290Z,0.00
2018-01-22T05:13:03.251Z,0.00
2018-01-22T05:14:03.198Z,0.00
2018-01-22T05:15:03.166Z,0.00
2018-01-22T05:16:03.138Z,0.00
2018-01-22T05:17:03.108Z,0.00
2018-01-22T05:18:03.078Z,0.00
2018-01-22T05:19:03.043Z,0.00
2018-01-22T05:20:03.009Z,0.00
2018-01-22T05:21:02.977Z,0.00
2018-01-22T05:22:02.966Z,0.00
2018-01-22T05:23:02.994Z,0.00
2018-01-22T05:24:02.880Z,0.00
2018-01-22T05:25:02.846Z,0.00
2018-01-22T05:26:02.816Z,0.00
2018-01-22T05:27:02.786Z,0.00
2018-01-22T05:28:02.757Z,0.00
2018-01-22T05:29:02.719Z,0.00
2018-01-22T05:30:02.692Z,0.00
2018-01-22T05:31:02.657Z,0.00
2018-01-22T05:32:02.628Z,0.00
2018-01-22T05:33:02.604Z,0.00
2018-01-22T05:34:02.567Z,0.00
2018-01-22T05:35:02.536Z,0.00
2018-01-22T05:36:02.502Z,0.00
2018-01-22T05:37:02.471Z,0.00
2018-01-22T05:38:02.440Z,0.00
2018-01-22T05:39:02.417Z,0.00
2018-01-22T05:40:02.369Z,0.00
2018-01-22T05:41:02.341Z,0.00
2018-01-22T05:42:02.313Z,0.00
2018-01-22T05:43:02.276Z,0.00
2018-01-22T05:44:02.248Z,0.00
2018-01-22T05:45:02.215Z,0.00
2018-01-22T05:46:02.217Z,0.00
2018-01-22T05:47:02.147Z,0.00
2018-01-22T05:48:02.123Z,0.00
2018-01-22T05:49:02.095Z,0.00
2018-01-22T05:50:02.062Z,0.00
2018-01-22T05:51:02.028Z,0.00
2018-01-22T05:52:02.000Z,0.00
2018-01-22T05:53:01.965Z,0.00
2018-01-22T05:54:01.931Z,0.00
2018-01-22T05:55:01.899Z,0.00
2018-01-22T05:56:01.867Z,0.00
2018-01-22T05:57:01.833Z,0.00
2018-01-22T05:58:01.807Z,0.00
2018-01-22T05:59:01.834Z,0.00
2018-01-22T06:00:01.739Z,0.00
2018-01-22T06:01:01.709Z,0.00
2018-01-22T06:02:01.680Z,0.00
2018-01-22T06:03:01.643Z,0.00
2018-01-22T06:04:01.616Z,0.00
2018-01-22T06:05:01.589Z,0.00
2018-01-22T06:06:01.551Z,0.00
2018-01-22T06:07:01.629Z,0.00
2018-01-22T06:08:01.486Z,0.00
2018-01-22T06:09:01.461Z,0.00
2018-01-22T06:10:01.423Z,0.00
2018-01-22T06:11:01.389Z,0.00
2018-01-22T06:12:01.421Z,0.00
2018-01-22T06:13:01.333Z,0.00
2018-01-22T06:14:01.315Z,0.00
2018-01-22T06:15:01.358Z,0.00
2018-01-22T06:16:01.281Z,0.00
2018-01-22T06:17:01.205Z,0.00
2018-01-22T06:18:01.175Z,0.00
2018-01-22T06:19:01.141Z,0.00
2018-01-22T06:20:01.109Z,0.00
2018-01-22T06:21:01.074Z,0.00
2018-01-22T06:22:01.048Z,0.00
2018-01-22T06:23:01.014Z,0.00
2018-01-22T06:24:00.979Z,0.00
2018-01-22T06:25:00.948Z,0.00
2018-01-22T06:26:00.919Z,0.00
2018-01-22T06:27:00.889Z,0.00
2018-01-22T06:28:00.856Z,0.00
2018-01-22T06:29:00.823Z,0.00
2018-01-22T06:30:00.798Z,0.00
2018-01-22T06:31:00.797Z,0.00
2018-01-22T06:32:00.727Z,0.00
2018-01-22T06:33:00.701Z,0.00
2018-01-22T06:34:00.704Z,0.00
2018-01-22T06:35:00.634Z,0.00
2018-01-22T06:36:00.622Z,0.00
2018-01-22T06:37:00.570Z,0.00
2018-01-22T06:38:00.536Z,0.00
2018-01-22T06:39:00.504Z,0.00
2018-01-22T06:40:00.472Z,0.00
2018-01-22T06:41:00.448Z,0.00
2018-01-22T06:42:00.411Z,0.00
2018-01-22T06:43:00.390Z,0.00
2018-01-22T06:44:00.349Z,0.00
2018-01-22T06:45:00.319Z,0.00
2018-01-22T06:46:00.288Z,0.00
2018-01-22T06:47:00.256Z,0.00
2018-01-22T06:48:00.224Z,0.00
2018-01-22T06:49:00.199Z,0.00
2018-01-22T06:50:00.162Z,0.00
2018-01-22T06:51:00.133Z,0.00
2018-01-22T06:52:00.092Z,0.00
2018-01-22T06:53:00.063Z,0.00
2018-01-22T06:54:00.032Z,0.00
2018-01-22T06:55:00.042Z,0.00
2018-01-22T06:55:59.972Z,0.00
2018-01-22T06:56:59.956Z,0.00
2018-01-22T06:57:59.905Z,0.00
2018-01-22T06:58:59.871Z,0.00
2018-01-22T06:59:59.846Z,0.00
2018-01-22T07:00:59.824Z,4.00
2018-01-22T07:01:59.785Z,4.00
2018-01-22T07:02:59.749Z,4.00
2018-01-22T07:03:59.723Z,4.00
2018-01-22T07:04:59.695Z,0.00
2018-01-22T07:05:59.658Z,0.00
2018-01-22T07:06:59.628Z,0.00
2018-01-22T07:07:59.592Z,4.00
2018-01-22T07:08:59.559Z,4.00
2018-01-22T07:09:59.537Z,4.00
2018-01-22T07:10:59.575Z,4.00
2018-01-22T07:11:59.465Z,4.00
2018-01-22T07:12:59.436Z,4.00
2018-01-22T07:13:59.404Z,4.00
2018-01-22T07:14:59.371Z,8.00
2018-01-22T07:15:59.339Z,8.00
2018-01-22T07:16:59.303Z,12.00
2018-01-22T07:17:59.279Z,8.00
2018-01-22T07:18:59.243Z,12.00
2018-01-22T07:19:59.212Z,12.00
2018-01-22T07:20:59.179Z,16.00
2018-01-22T07:21:59.154Z,16.00
2018-01-22T07:22:59.118Z,16.00
2018-01-22T07:23:59.094Z,16.00
2018-01-22T07:24:59.090Z,20.00
2018-01-22T07:25:59.026Z,20.00
2018-01-22T07:26:58.994Z,28.00
2018-01-22T07:27:58.963Z,28.00
2018-01-22T07:28:58.932Z,36.00
2018-01-22T07:29:58.903Z,32.00
2018-01-22T07:30:58.878Z,40.00
2018-01-22T07:31:58.837Z,32.00
2018-01-22T07:32:58.806Z,36.00
2018-01-22T07:33:58.774Z,40.00
2018-01-22T07:34:58.744Z,44.00
2018-01-22T07:35:58.712Z,48.00
2018-01-22T07:36:58.681Z,52.00
2018-01-22T07:37:58.694Z,52.00
2018-01-22T07:38:58.613Z,60.00
2018-01-22T07:39:58.589Z,64.00
2018-01-22T07:40:58.556Z,72.00
2018-01-22T07:41:58.525Z,76.00
2018-01-22T07:42:58.506Z,84.00
2018-01-22T07:43:58.467Z,96.00
2018-01-22T07:44:58.434Z,112.00
2018-01-22T07:45:58.404Z,88.00
2018-01-22T07:46:58.401Z,88.00
2018-01-22T07:47:58.335Z,92.00
2018-01-22T07:48:58.307Z,92.00
2018-01-22T07:49:58.278Z,96.00
2018-01-22T07:50:58.245Z,120.00
2018-01-22T07:51:58.210Z,120.00
2018-01-22T07:52:58.181Z,132.00
2018-01-22T07:53:58.150Z,124.00
2018-01-22T07:54:58.134Z,132.00
2018-01-22T07:55:58.090Z,136.00
2018-01-22T07:56:58.073Z,140.00
2018-01-22T07:57:58.031Z,140.00
2018-01-22T07:58:58.007Z,144.00
2018-01-22T07:59:57.969Z,160.00
2018-01-22T08:00:57.935Z,192.00
2018-01-22T08:01:57.906Z,196.00
2018-01-22T08:02:57.878Z,204.00
2018-01-22T08:03:57.838Z,212.00
2018-01-22T08:04:57.855Z,208.00
2018-01-22T08:05:57.779Z,220.00
2018-01-22T08:06:57.747Z,268.00
2018-01-22T08:07:57.759Z,296.00
2018-01-22T08:08:57.685Z,296.00
2018-01-22T08:09:57.652Z,324.00
2018-01-22T08:10:57.617Z,320.00
2018-01-22T08:11:57.593Z,336.00
2018-01-22T08:12:57.564Z,360.00
2018-01-22T08:13:57.535Z,340.00
2018-01-22T08:14:57.503Z,316.00
2018-01-22T08:15:57.470Z,360.00
2018-01-22T08:16:57.447Z,408.00
2018-01-22T08:17:57.410Z,408.00
2018-01-22T08:18:57.380Z,384.00
2018-01-22T08:19:57.346Z,388.00
2018-01-22T08:20:57.315Z,428.00
2018-01-22T08:21:57.282Z,400.00
2018-01-22T08:22:57.251Z,428.00
2018-01-22T08:23:57.218Z,408.00
2018-01-22T08:24:57.190Z,360.00
2018-01-22T08:25:57.157Z,444.00
2018-01-22T08:26:57.125Z,500.00
2018-01-22T08:27:57.104Z,564.00
2018-01-22T08:28:57.071Z,576.00
2018-01-22T08:29:57.046Z,656.00
2018-01-22T08:30:57.009Z,608.00
2018-01-22T08:31:56.977Z,708.00
2018-01-22T08:32:56.943Z,680.00
2018-01-22T08:33:56.920Z,664.00
2018-01-22T08:34:56.885Z,688.00
2018-01-22T08:35:56.849Z,604.00
2018-01-22T08:36:56.849Z,612.00
2018-01-22T08:37:56.790Z,528.00
2018-01-22T08:38:56.759Z,544.00
2018-01-22T08:39:56.726Z,564.00
2018-01-22T08:40:56.699Z,764.00
2018-01-22T08:41:56.665Z,740.00
2018-01-22T08:42:56.645Z,608.00
2018-01-22T08:43:56.611Z,588.00
2018-01-22T08:44:56.580Z,796.00
2018-01-22T08:45:56.545Z,700.00
2018-01-22T08:46:56.517Z,600.00
2018-01-22T08:47:56.483Z,1012.00
2018-01-22T08:48:56.456Z,1024.00
2018-01-22T08:49:56.426Z,972.00
2018-01-22T08:50:56.419Z,684.00
2018-01-22T08:51:56.359Z,724.00
2018-01-22T08:52:56.327Z,820.00
2018-01-22T08:53:56.296Z,596.00
2018-01-22T08:54:56.268Z,688.00
2018-01-22T08:55:56.268Z,1004.00
2018-01-22T08:56:56.211Z,904.00
2018-01-22T08:57:56.186Z,968.00
2018-01-22T08:58:56.147Z,1312.00
2018-01-22T08:59:56.143Z,1108.00
2018-01-22T09:00:56.093Z,1072.00
2018-01-22T09:01:56.060Z,1256.00
2018-01-22T09:02:56.027Z,1352.00
2018-01-22T09:03:55.995Z,1348.00
2018-01-22T09:04:55.967Z,1176.00
2018-01-22T09:05:55.934Z,1108.00
2018-01-22T09:06:55.908Z,1196.00
2018-01-22T09:07:55.959Z,1352.00
2018-01-22T09:08:55.857Z,1892.00
2018-01-22T09:09:55.807Z,1664.00
2018-01-22T09:10:55.779Z,1444.00
2018-01-22T09:11:55.748Z,1840.00
2018-01-22T09:12:55.719Z,2096.00
2018-01-22T09:13:55.691Z,1864.00
2018-01-22T09:14:55.657Z,1752.00
2018-01-22T09:15:55.634Z,1568.00
2018-01-22T09:16:55.597Z,1704.00
2018-01-22T09:17:55.568Z,1896.00
2018-01-22T09:18:55.541Z,1648.00
2018-01-22T09:19:55.509Z,1652.00
2018-01-22T09:20:55.474Z,1576.00
2018-01-22T09:21:55.443Z,1844.00
2018-01-22T09:22:55.415Z,1920.00
2018-01-22T09:23:55.388Z,1580.00
2018-01-22T09:24:55.359Z,1560.00
2018-01-22T09:25:55.330Z,1600.00
2018-01-22T09:26:55.301Z,1596.00
2018-01-22T09:27:55.269Z,1700.00
2018-01-22T09:28:55.237Z,1228.00
2018-01-22T09:29:55.237Z,1048.00
2018-01-22T09:30:55.180Z,1088.00
2018-01-22T09:31:55.141Z,1396.00
2018-01-22T09:32:55.117Z,1120.00
2018-01-22T09:33:55.083Z,968.00
2018-01-22T09:34:55.050Z,716.00
2018-01-22T09:35:55.023Z,892.00
2018-01-22T09:36:54.993Z,756.00
2018-01-22T09:37:54.962Z,700.00
2018-01-22T09:38:54.936Z,736.00
2018-01-22T09:39:54.987Z,780.00
2018-01-22T09:40:54.936Z,808.00
2018-01-22T09:41:54.851Z,1004.00
2018-01-22T09:42:54.820Z,1176.00
2018-01-22T09:43:54.790Z,1000.00
2018-01-22T09:44:54.757Z,1008.00
2018-01-22T09:45:54.726Z,1256.00
2018-01-22T09:46:54.695Z,1368.00
2018-01-22T09:47:54.661Z,1436.00
2018-01-22T09:48:54.629Z,1520.00
2018-01-22T09:49:54.601Z,1296.00
2018-01-22T09:50:54.571Z,1168.00
2018-01-22T09:51:54.540Z,1460.00
2018-01-22T09:52:54.514Z,1364.00
2018-01-22T09:53:54.483Z,1304.00
2018-01-22T09:54:54.460Z,1128.00
2018-01-22T09:55:54.430Z,1140.00
2018-01-22T09:56:54.398Z,1024.00
2018-01-22T09:57:54.386Z,904.00
2018-01-22T09:58:54.337Z,1144.00
2018-01-22T09:59:54.311Z,1128.00
2018-01-22T10:00:54.293Z,1184.00
2018-01-22T10:01:54.249Z,1212.00
2018-01-22T10:02:54.217Z,1664.00
2018-01-22T10:03:54.185Z,2396.00
2018-01-22T10:04:54.193Z,2604.00
2018-01-22T10:05:54.128Z,3084.00
2018-01-22T10:06:54.092Z,3104.00
2018-01-22T10:07:54.063Z,2900.00
2018-01-22T10:08:54.032Z,3092.00
2018-01-22T10:09:54.004Z,3044.00
2018-01-22T10:10:53.974Z,2608.00
2018-01-22T10:11:53.945Z,2828.00
2018-01-22T10:12:53.920Z,2836.00
2018-01-22T10:13:53.890Z,2604.00
2018-01-22T10:14:53.861Z,2660.00
2018-01-22T10:15:53.828Z,2688.00
2018-01-22T10:16:53.812Z,2492.00
2018-01-22T10:17:53.779Z,2680.00
2018-01-22T10:18:53.739Z,2784.00
2018-01-22T10:19:53.712Z,2692.00
2018-01-22T10:20:53.682Z,2548.00
2018-01-22T10:21:53.652Z,2648.00
2018-01-22T10:22:53.622Z,2628.00
2018-01-22T10:23:53.597Z,1956.00
2018-01-22T10:24:53.571Z,2060.00
2018-01-22T10:25:53.539Z,2180.00
2018-01-22T10:26:53.510Z,2308.00
2018-01-22T10:27:53.513Z,2308.00
2018-01-22T10:28:53.441Z,2596.00
2018-01-22T10:29:53.416Z,3008.00
2018-01-22T10:30:53.388Z,3744.00
2018-01-22T10:31:53.360Z,4096.00
2018-01-22T10:32:53.343Z,3808.00
2018-01-22T10:33:53.298Z,4288.00
2018-01-22T10:34:53.268Z,3720.00
2018-01-22T10:35:53.242Z,2856.00
2018-01-22T10:36:53.216Z,3068.00
2018-01-22T10:37:53.183Z,3120.00
2018-01-22T10:38:53.155Z,2996.00
2018-01-22T10:39:53.124Z,3144.00
2018-01-22T10:40:53.420Z,3632.00
2018-01-22T10:41:53.071Z,3264.00
2018-01-22T10:42:53.040Z,3056.00
2018-01-22T10:43:53.013Z,3096.00
2018-01-22T10:44:52.988Z,3040.00
2018-01-22T10:45:52.950Z,2392.00
2018-01-22T10:46:52.922Z,2004.00
2018-01-22T10:47:52.890Z,2012.00
2018-01-22T10:48:52.894Z,2268.00
2018-01-22T10:49:52.840Z,3588.00
2018-01-22T10:50:52.850Z,5116.00
2018-01-22T10:51:52.781Z,5652.00
2018-01-22T10:52:52.792Z,6000.00
2018-01-22T10:53:52.730Z,6372.00
2018-01-22T10:54:52.691Z,6476.00
2018-01-22T10:55:52.676Z,6476.00
2018-01-22T10:56:52.636Z,6528.00
2018-01-22T10:57:52.606Z,6368.00
2018-01-22T10:58:52.580Z,5816.00
2018-01-22T10:59:52.543Z,5048.00
2018-01-22T11:00:52.521Z,4432.00
2018-01-22T11:01:52.492Z,4052.00
2018-01-22T11:02:52.457Z,3420.00
2018-01-22T11:03:52.432Z,3072.00
2018-01-22T11:04:52.407Z,3532.00
2018-01-22T11:05:52.376Z,3340.00
2018-01-22T11:06:52.345Z,3348.00
2018-01-22T11:07:52.320Z,3132.00
2018-01-22T11:08:52.294Z,2756.00
2018-01-22T11:09:52.312Z,3212.00
2018-01-22T11:10:52.236Z,2992.00
2018-01-22T11:11:52.204Z,3260.00
2018-01-22T11:12:52.178Z,4140.00
2018-01-22T11:13:52.150Z,4448.00
2018-01-22T11:14:52.156Z,4448.00
2018-01-22T11:15:52.102Z,3860.00
2018-01-22T11:16:52.060Z,2800.00
2018-01-22T11:17:52.038Z,2732.00
2018-01-22T11:18:52.003Z,2728.00
2018-01-22T11:19:51.980Z,2932.00
2018-01-22T11:20:51.947Z,3352.00
2018-01-22T11:21:51.954Z,3572.00
2018-01-22T11:22:51.887Z,4156.00
2018-01-22T11:23:51.864Z,3812.00
2018-01-22T11:24:51.836Z,3496.00
2018-01-22T11:25:51.827Z,3912.00
2018-01-22T11:26:51.774Z,3976.00
2018-01-22T11:27:51.807Z,3620.00
2018-01-22T11:28:51.714Z,3556.00
2018-01-22T11:29:51.689Z,3752.00
2018-01-22T11:30:51.658Z,4556.00
2018-01-22T11:31:51.633Z,4940.00
2018-01-22T11:32:51.609Z,5000.00
2018-01-22T11:33:51.578Z,5144.00
2018-01-22T11:34:53.056Z,5420.00
2018-01-22T11:35:51.518Z,4948.00
2018-01-22T11:36:51.566Z,4136.00
2018-01-22T11:37:51.467Z,3936.00
2018-01-22T11:38:51.464Z,4208.00
2018-01-22T11:39:51.402Z,4716.00
2018-01-22T11:40:51.381Z,4532.00
2018-01-22T11:41:51.377Z,4212.00
2018-01-22T11:42:51.320Z,4124.00
2018-01-22T11:43:51.285Z,4056.00
2018-01-22T11:44:51.261Z,4252.00
2018-01-22T11:45:51.235Z,3868.00
2018-01-22T11:46:51.204Z,3556.00
2018-01-22T11:47:51.176Z,3808.00
2018-01-22T11:48:51.156Z,4224.00
2018-01-22T11:49:53.056Z,4348.00
2018-01-22T11:50:51.092Z,4344.00
2018-01-22T11:51:51.075Z,4144.00
2018-01-22T11:52:51.039Z,3596.00
2018-01-22T11:53:51.014Z,3396.00
2018-01-22T11:54:50.983Z,3280.00
2018-01-22T11:55:50.954Z,3520.00
2018-01-22T11:56:50.918Z,3540.00
2018-01-22T11:57:50.889Z,3588.00
2018-01-22T11:58:50.863Z,3428.00
2018-01-22T11:59:50.840Z,3264.00
2018-01-22T12:00:50.807Z,3436.00
2018-01-22T12:01:50.777Z,3872.00
2018-01-22T12:02:50.756Z,3856.00
2018-01-22T12:03:50.723Z,3728.00
2018-01-22T12:04:50.701Z,3348.00
2018-01-22T12:05:50.670Z,3040.00
2018-01-22T12:06:50.640Z,3356.00
2018-01-22T12:07:50.613Z,3752.00
2018-01-22T12:08:50.585Z,3824.00
2018-01-22T12:09:50.560Z,4024.00
2018-01-22T12:10:50.571Z,4104.00
2018-01-22T12:11:50.495Z,4056.00
2018-01-22T12:12:50.465Z,3980.00
2018-01-22T12:13:50.447Z,3736.00
2018-01-22T12:14:50.476Z,3588.00
2018-01-22T12:15:50.377Z,3344.00
2018-01-22T12:16:50.350Z,3220.00
2018-01-22T12:17:50.330Z,3200.00
2018-01-22T12:18:50.293Z,3396.00
2018-01-22T12:19:50.269Z,3104.00
2018-01-22T12:20:50.241Z,2844.00
2018-01-22T12:21:50.212Z,2516.00
2018-01-22T12:22:50.183Z,2024.00
2018-01-22T12:23:50.156Z,1952.00
2018-01-22T12:24:50.127Z,2232.00
2018-01-22T12:25:50.103Z,1912.00
2018-01-22T12:26:50.069Z,1592.00
2018-01-22T12:27:50.037Z,1708.00
2018-01-22T12:28:50.011Z,2008.00
2018-01-22T12:29:49.981Z,2244.00
2018-01-22T12:30:49.952Z,2272.00
2018-01-22T12:31:49.925Z,2120.00
2018-01-22T12:32:49.902Z,1844.00
2018-01-22T12:33:49.870Z,1988.00
2018-01-22T12:34:49.840Z,2532.00
2018-01-22T12:35:49.808Z,2472.00
2018-01-22T12:36:49.782Z,2380.00
2018-01-22T12:37:49.758Z,2224.00
2018-01-22T12:38:49.729Z,2384.00
2018-01-22T12:39:49.697Z,2448.00
2018-01-22T12:40:49.664Z,2784.00
2018-01-22T12:41:49.647Z,3288.00
2018-01-22T12:42:49.608Z,3220.00
2018-01-22T12:43:49.582Z,3192.00
2018-01-22T12:44:49.552Z,3364.00
2018-01-22T12:45:49.533Z,2872.00
2018-01-22T12:46:49.501Z,2756.00
2018-01-22T12:47:49.467Z,3064.00
2018-01-22T12:48:49.490Z,3512.00